createdAt,value
2019-05-29T00:01:27.498Z,1.10
2019-05-29T00:04:00.331Z,1.30
2019-05-29T00:06:30.095Z,1.80
2019-05-29T00:08:59.922Z,1.30
2019-05-29T00:11:29.606Z,1.27
2019-05-29T00:14:00.646Z,1.47
2019-05-29T00:16:30.420Z,1.40
2019-05-29T00:19:00.434Z,1.37
2019-05-29T00:21:36.119Z,1.80
2019-05-29T00:24:06.681Z,1.30
2019-05-29T00:26:38.628Z,1.70
2019-05-29T00:29:11.703Z,1.60
2019-05-29T00:31:41.606Z,2.10
2019-05-29T00:34:13.101Z,1.50
2019-05-29T00:36:43.836Z,1.63
2019-05-29T00:39:14.746Z,1.50
2019-05-29T00:41:45.278Z,1.83
2019-05-29T00:44:15.407Z,1.97
2019-05-29T00:46:45.148Z,1.70
2019-05-29T00:49:15.987Z,1.83
2019-05-29T00:51:45.721Z,2.13
2019-05-29T00:54:16.522Z,1.97
2019-05-29T00:56:46.349Z,2.10
2019-05-29T00:59:17.306Z,1.80
2019-05-29T01:01:47.622Z,1.83
2019-05-29T01:04:17.883Z,2.00
2019-05-29T01:06:48.015Z,1.53
2019-05-29T01:09:18.612Z,1.87
2019-05-29T01:11:48.474Z,1.93
2019-05-29T01:14:19.269Z,1.60
2019-05-29T01:16:49.062Z,1.87
2019-05-29T01:19:27.683Z,1.77
2019-05-29T01:21:58.117Z,1.90
2019-05-29T01:24:27.959Z,1.87
2019-05-29T01:26:57.602Z,1.90
2019-05-29T01:29:29.976Z,1.97
2019-05-29T01:31:59.693Z,1.70
2019-05-29T01:34:29.397Z,1.80
2019-05-29T01:36:59.063Z,2.13
2019-05-29T01:39:28.798Z,2.00
2019-05-29T01:41:58.569Z,1.83
2019-05-29T01:44:28.255Z,1.50
2019-05-29T01:47:00.898Z,2.60
2019-05-29T01:49:33.051Z,2.40
2019-05-29T01:52:02.681Z,1.90
2019-05-29T01:54:32.455Z,2.30
2019-05-29T01:57:02.278Z,2.30
2019-05-29T01:59:32.225Z,2.40
2019-05-29T02:02:03.564Z,1.73
2019-05-29T02:04:35.952Z,2.00
2019-05-29T02:07:04.613Z,1.40
2019-05-29T02:09:37.535Z,1.60
2019-05-29T02:12:08.017Z,1.63
2019-05-29T02:14:37.941Z,1.53
2019-05-29T02:17:09.870Z,1.77
2019-05-29T02:19:39.658Z,1.40
2019-05-29T02:22:09.768Z,1.70
2019-05-29T02:24:39.553Z,1.50
2019-05-29T02:27:09.288Z,1.60
2019-05-29T02:29:42.018Z,1.77
2019-05-29T02:32:11.635Z,1.70
2019-05-29T02:34:41.372Z,1.60
2019-05-29T02:37:15.689Z,1.60
2019-05-29T02:39:45.652Z,1.80
2019-05-29T02:42:20.864Z,1.87
2019-05-29T02:44:50.841Z,1.70
2019-05-29T02:47:23.667Z,1.83
2019-05-29T02:49:53.486Z,1.80
2019-05-29T02:52:24.263Z,1.87
2019-05-29T02:54:54.023Z,1.90
2019-05-29T02:57:24.645Z,1.40
2019-05-29T02:59:54.513Z,1.60
2019-05-29T03:02:25.652Z,1.80
2019-05-29T03:04:55.320Z,1.80
2019-05-29T03:07:26.332Z,1.70
2019-05-29T03:09:56.597Z,1.93
2019-05-29T03:12:27.062Z,2.20
2019-05-29T03:14:57.172Z,2.00
2019-05-29T03:17:27.892Z,1.80
2019-05-29T03:19:57.997Z,1.77
2019-05-29T03:22:28.788Z,2.27
2019-05-29T03:24:58.661Z,1.83
2019-05-29T03:27:29.877Z,2.07
2019-05-29T03:29:59.504Z,1.80
2019-05-29T03:32:34.524Z,2.27
2019-05-29T03:35:00.746Z,2.30
2019-05-29T03:37:32.574Z,2.20
2019-05-29T03:40:02.760Z,2.10
2019-05-29T03:42:38.889Z,2.10
2019-05-29T03:45:08.503Z,2.03
2019-05-29T03:47:38.292Z,2.10
2019-05-29T03:50:08.595Z,2.53
2019-05-29T03:52:41.257Z,2.33
2019-05-29T03:55:11.094Z,2.23
2019-05-29T03:57:40.857Z,2.40
2019-05-29T04:00:11.990Z,2.43
2019-05-29T04:02:41.740Z,2.30
2019-05-29T04:05:11.607Z,2.60
2019-05-29T04:07:42.984Z,2.50
2019-05-29T04:10:12.709Z,2.17
2019-05-29T04:12:42.346Z,1.97
2019-05-29T04:15:15.494Z,2.03
2019-05-29T04:17:45.976Z,2.20
2019-05-29T04:20:15.558Z,1.90
2019-05-29T04:22:46.041Z,1.90
2019-05-29T04:25:15.735Z,2.20
2019-05-29T04:27:48.786Z,1.77
2019-05-29T04:30:19.599Z,2.23
2019-05-29T04:32:49.361Z,2.10
2019-05-29T04:35:18.965Z,2.00
2019-05-29T04:37:51.431Z,2.33
2019-05-29T04:40:21.059Z,2.53
2019-05-29T04:42:50.702Z,2.23
2019-05-29T04:45:20.386Z,2.30
2019-05-29T04:47:50.019Z,2.10
2019-05-29T04:50:19.607Z,2.30
2019-05-29T04:52:50.931Z,2.47
2019-05-29T04:55:20.590Z,2.13
2019-05-29T04:57:51.065Z,2.40
2019-05-29T05:00:23.928Z,2.10
2019-05-29T05:02:53.660Z,2.50
2019-05-29T05:05:23.238Z,2.10
2019-05-29T05:07:52.779Z,1.87
2019-05-29T05:10:41.339Z,2.23
2019-05-29T05:13:11.019Z,1.63
2019-05-29T05:15:40.714Z,1.93
2019-05-29T05:18:10.378Z,1.97
2019-05-29T05:20:40.467Z,2.40
2019-05-29T05:23:10.236Z,1.83
2019-05-29T05:25:41.044Z,2.00
2019-05-29T05:28:11.170Z,2.30
2019-05-29T05:30:40.945Z,2.23
2019-05-29T05:33:10.583Z,1.90
2019-05-29T05:35:40.995Z,1.53
2019-05-29T05:38:10.630Z,1.40
2019-05-29T05:40:43.077Z,1.33
2019-05-29T05:43:23.700Z,1.27
2019-05-29T05:45:42.726Z,1.50
2019-05-29T05:48:12.231Z,1.57
2019-05-29T05:50:41.844Z,1.30
2019-05-29T05:53:11.363Z,1.90
2019-05-29T05:55:42.815Z,1.33
2019-05-29T05:58:12.266Z,1.40
2019-05-29T06:00:42.153Z,1.30
2019-05-29T06:03:15.791Z,1.10
2019-05-29T06:05:45.799Z,1.17
2019-05-29T06:08:15.544Z,1.33
2019-05-29T06:10:45.103Z,1.37
2019-05-29T06:13:14.964Z,1.17
2019-05-29T06:15:44.718Z,0.90
2019-05-29T06:18:21.250Z,1.30
2019-05-29T06:20:45.606Z,1.30
2019-05-29T06:23:15.376Z,1.33
2019-05-29T06:25:44.996Z,1.30
2019-05-29T06:28:14.688Z,1.47
2019-05-29T06:30:45.121Z,1.13
2019-05-29T06:33:15.307Z,1.13
2019-05-29T06:35:44.923Z,1.40
2019-05-29T06:38:14.399Z,1.00
2019-05-29T06:40:44.887Z,1.10
2019-05-29T06:43:25.880Z,1.30
2019-05-29T06:45:56.263Z,1.00
2019-05-29T06:48:41.688Z,1.27
2019-05-29T06:50:59.192Z,1.10
2019-05-29T06:53:28.672Z,1.73
2019-05-29T06:55:59.365Z,1.20
2019-05-29T06:58:29.297Z,1.20
2019-05-29T07:00:59.106Z,1.27
2019-05-29T07:03:28.503Z,1.20
2019-05-29T07:06:00.418Z,0.90
2019-05-29T07:08:38.657Z,0.87
2019-05-29T07:11:00.982Z,1.00
2019-05-29T07:13:34.681Z,0.90
2019-05-29T07:16:01.842Z,1.10
2019-05-29T07:18:31.288Z,1.30
2019-05-29T07:21:00.709Z,1.03
2019-05-29T07:23:30.103Z,1.50
2019-05-29T07:25:59.588Z,1.00
2019-05-29T07:28:29.076Z,0.83
2019-05-29T07:31:02.856Z,1.00
2019-05-29T07:33:29.629Z,0.90
2019-05-29T07:35:59.049Z,1.00
2019-05-29T07:38:28.547Z,0.93
2019-05-29T07:40:57.967Z,1.00
2019-05-29T07:43:27.491Z,1.20
2019-05-29T07:45:57.031Z,1.00
2019-05-29T07:48:26.464Z,0.90
2019-05-29T07:51:06.591Z,1.10
2019-05-29T07:53:29.363Z,1.20
2019-05-29T07:55:58.874Z,1.27
2019-05-29T07:58:28.327Z,1.20
2019-05-29T08:01:12.300Z,1.10
2019-05-29T08:03:32.115Z,1.17
2019-05-29T08:06:02.427Z,1.33
2019-05-29T08:08:36.775Z,1.40
2019-05-29T08:11:06.178Z,1.10
2019-05-29T08:13:41.863Z,1.17
2019-05-29T08:16:11.631Z,1.57
2019-05-29T08:18:53.330Z,1.30
2019-05-29T08:21:22.987Z,1.07
2019-05-29T08:23:52.454Z,1.13
2019-05-29T08:26:21.993Z,1.30
2019-05-29T08:28:51.419Z,1.27
2019-05-29T08:31:21.249Z,1.20
2019-05-29T08:33:51.235Z,1.13
2019-05-29T08:36:23.515Z,0.93
2019-05-29T08:38:52.898Z,1.03
2019-05-29T08:41:22.373Z,2.20
2019-05-29T08:43:52.786Z,0.90
2019-05-29T08:46:22.378Z,0.93
2019-05-29T08:48:52.271Z,1.20
2019-05-29T08:51:21.973Z,1.13
2019-05-29T08:53:53.403Z,1.10
2019-05-29T08:56:22.836Z,1.10
2019-05-29T08:58:55.293Z,1.23
2019-05-29T09:01:24.792Z,1.57
2019-05-29T09:03:54.220Z,1.30
2019-05-29T09:06:23.631Z,1.00
2019-05-29T09:08:54.876Z,1.37
2019-05-29T09:11:24.257Z,1.10
2019-05-29T09:13:53.659Z,1.20
2019-05-29T09:16:23.264Z,1.30
2019-05-29T09:18:52.732Z,0.90
2019-05-29T09:21:22.895Z,1.07
2019-05-29T09:23:53.253Z,0.90
2019-05-29T09:26:25.489Z,0.83
2019-05-29T09:29:02.463Z,1.10
2019-05-29T09:31:31.879Z,1.17
2019-05-29T09:34:01.461Z,0.90
2019-05-29T09:36:30.824Z,0.87
2019-05-29T09:39:00.314Z,0.80
2019-05-29T09:41:29.672Z,0.70
2019-05-29T09:44:05.672Z,0.47
2019-05-29T09:46:37.024Z,0.60
2019-05-29T09:49:06.466Z,0.50
2019-05-29T09:51:35.856Z,0.20
2019-05-29T09:54:05.340Z,0.30
2019-05-29T09:56:34.841Z,0.30
2019-05-29T09:59:04.403Z,0.50
2019-05-29T10:01:33.747Z,0.30
2019-05-29T10:04:05.943Z,0.30
2019-05-29T10:06:34.362Z,0.30
2019-05-29T10:09:04.954Z,0.13
2019-05-29T10:11:34.413Z,0.33
2019-05-29T10:14:05.073Z,0.10
2019-05-29T10:16:34.520Z,0.23
2019-05-29T10:19:04.972Z,0.50
2019-05-29T10:21:40.498Z,0.30
2019-05-29T10:24:06.248Z,0.30
2019-05-29T10:26:35.722Z,0.40
2019-05-29T10:29:09.116Z,0.20
2019-05-29T10:31:36.647Z,0.47
2019-05-29T10:34:05.983Z,0.57
2019-05-29T10:36:35.282Z,0.30
2019-05-29T10:39:06.545Z,0.60
2019-05-29T10:41:35.940Z,0.70
2019-05-29T10:44:05.504Z,0.40
2019-05-29T10:46:35.035Z,0.50
2019-05-29T10:49:05.454Z,0.80
2019-05-29T10:52:00.380Z,1.30
2019-05-29T10:54:17.497Z,2.03
2019-05-29T10:56:50.984Z,2.33
2019-05-29T10:59:21.099Z,3.37
2019-05-29T11:01:51.298Z,3.80
2019-05-29T11:04:22.522Z,3.60
2019-05-29T11:06:52.641Z,4.20
2019-05-29T11:09:24.895Z,4.87
2019-05-29T11:11:57.819Z,4.23
2019-05-29T11:14:36.467Z,4.53
2019-05-29T11:17:08.361Z,2.73
2019-05-29T11:19:38.269Z,4.23
2019-05-29T11:22:25.286Z,5.63
2019-05-29T11:24:39.344Z,4.33
2019-05-29T11:27:34.250Z,3.33
2019-05-29T11:30:08.489Z,4.30
2019-05-29T11:32:37.959Z,5.87
2019-05-29T11:35:08.522Z,5.47
2019-05-29T11:37:38.172Z,4.20
2019-05-29T11:40:08.794Z,6.20
2019-05-29T11:42:38.254Z,5.13
2019-05-29T11:45:09.935Z,3.10
2019-05-29T11:47:41.891Z,3.10
2019-05-29T11:50:19.072Z,3.83
2019-05-29T11:52:44.936Z,4.73
2019-05-29T11:55:16.995Z,5.30
2019-05-29T11:57:46.348Z,4.20
2019-05-29T12:00:20.392Z,4.43
2019-05-29T12:02:47.524Z,3.73
2019-05-29T12:05:23.285Z,3.60
2019-05-29T12:07:53.498Z,4.80
2019-05-29T12:10:23.344Z,4.00
2019-05-29T12:12:53.392Z,3.50
2019-05-29T12:15:24.098Z,4.33
2019-05-29T12:17:57.898Z,3.47
2019-05-29T12:20:28.003Z,4.33
2019-05-29T12:23:22.822Z,4.33
2019-05-29T12:25:36.490Z,4.27
2019-05-29T12:29:32.975Z,4.50
2019-05-29T12:31:25.094Z,4.83
2019-05-29T12:34:18.903Z,3.53
2019-05-29T12:36:55.600Z,4.67
2019-05-29T12:39:45.903Z,3.33
2019-05-29T12:42:37.651Z,4.83
2019-05-29T12:45:45.954Z,3.30
2019-05-29T12:48:46.002Z,2.53
2019-05-29T12:51:22.630Z,2.13
2019-05-29T12:53:55.867Z,3.57
2019-05-29T12:56:25.372Z,2.33
2019-05-29T12:58:56.054Z,3.27
2019-05-29T13:01:48.761Z,2.87
2019-05-29T13:04:13.428Z,2.30
2019-05-29T13:06:46.922Z,2.17
2019-05-29T13:09:16.596Z,3.33
2019-05-29T13:11:46.161Z,3.00
2019-05-29T13:14:23.737Z,3.30
2019-05-29T13:16:54.674Z,3.03
2019-05-29T13:19:28.241Z,3.63
2019-05-29T13:21:59.856Z,3.13
2019-05-29T13:24:31.670Z,2.27
2019-05-29T13:27:07.299Z,3.03
2019-05-29T13:29:37.929Z,2.50
2019-05-29T13:35:50.630Z,3.13
2019-05-29T13:38:21.256Z,3.30
2019-05-29T13:40:51.126Z,4.50
2019-05-29T13:43:24.400Z,4.17
2019-05-29T13:45:54.341Z,3.23
2019-05-29T13:48:26.788Z,4.03
2019-05-29T13:50:57.577Z,4.10
2019-05-29T13:53:31.228Z,4.03
2019-05-29T13:56:03.913Z,4.57
2019-05-29T13:58:37.685Z,4.33
2019-05-29T14:01:10.128Z,4.03
2019-05-29T14:03:41.082Z,2.27
2019-05-29T14:06:14.397Z,4.40
2019-05-29T14:08:44.559Z,4.47
2019-05-29T14:11:16.134Z,4.27
2019-05-29T14:13:46.011Z,4.33
2019-05-29T14:16:25.969Z,4.43
2019-05-29T14:18:55.697Z,2.17
2019-05-29T14:21:26.782Z,4.40
2019-05-29T14:23:58.287Z,4.43
2019-05-29T14:26:45.646Z,4.00
2019-05-29T14:29:19.525Z,5.00
2019-05-29T14:31:48.931Z,4.93
2019-05-29T14:34:22.410Z,5.30
2019-05-29T14:36:51.967Z,4.53
2019-05-29T14:39:21.609Z,4.50
2019-05-29T14:41:54.561Z,6.03
2019-05-29T14:44:24.150Z,3.97
2019-05-29T14:46:54.849Z,4.80
2019-05-29T14:49:28.196Z,5.33
2019-05-29T14:51:58.331Z,4.90
2019-05-29T14:54:41.426Z,5.73
2019-05-29T14:56:59.495Z,5.73
2019-05-29T14:59:32.208Z,6.77
2019-05-29T15:02:06.179Z,6.67
2019-05-29T15:04:35.353Z,6.83
2019-05-29T15:07:05.741Z,7.27
2019-05-29T15:09:35.361Z,8.87
2019-05-29T15:12:05.983Z,6.30
2019-05-29T15:14:35.635Z,7.67
2019-05-29T15:17:07.074Z,9.67
2019-05-29T15:19:39.300Z,10.90
2019-05-29T15:22:09.470Z,9.17
2019-05-29T15:24:56.211Z,7.70
2019-05-29T15:27:14.397Z,5.63
2019-05-29T15:29:57.513Z,7.07
2019-05-29T15:32:33.442Z,8.63
2019-05-29T15:35:03.171Z,9.70
2019-05-29T15:37:35.008Z,5.60
2019-05-29T15:40:06.627Z,7.10
2019-05-29T15:42:54.516Z,8.90
2019-05-29T15:45:24.393Z,7.47
2019-05-29T15:47:54.055Z,8.23
2019-05-29T15:50:25.925Z,7.63
2019-05-29T15:52:56.290Z,7.97
2019-05-29T15:55:34.918Z,6.90
2019-05-29T15:58:04.947Z,7.53
2019-05-29T16:00:39.165Z,8.80
2019-05-29T16:03:09.627Z,6.80
2019-05-29T16:05:41.694Z,6.97
2019-05-29T16:08:14.075Z,6.80
2019-05-29T16:10:43.939Z,7.80
2019-05-29T16:13:19.448Z,7.87
2019-05-29T16:15:56.777Z,6.17
2019-05-29T16:18:29.853Z,7.23
2019-05-29T16:20:59.466Z,5.63
2019-05-29T16:23:35.650Z,8.10
2019-05-29T16:26:00.555Z,8.10
2019-05-29T16:28:33.895Z,4.57
2019-05-29T16:31:08.215Z,6.70
2019-05-29T16:33:37.853Z,8.73
2019-05-29T16:36:07.581Z,5.87
2019-05-29T16:38:37.089Z,6.30
2019-05-29T16:41:06.772Z,4.97
2019-05-29T16:43:36.264Z,3.50
2019-05-29T16:46:05.965Z,4.90
2019-05-29T16:48:35.705Z,4.13
2019-05-29T16:51:05.334Z,4.57
2019-05-29T16:53:41.355Z,6.43
2019-05-29T16:56:12.722Z,4.70
2019-05-29T16:58:43.570Z,7.17
2019-05-29T17:01:15.259Z,7.00
2019-05-29T17:03:45.553Z,6.20
2019-05-29T17:06:16.230Z,7.90
2019-05-29T17:08:46.951Z,8.20
2019-05-29T17:11:25.065Z,4.97
2019-05-29T17:13:54.699Z,8.07
2019-05-29T17:16:24.819Z,9.33
2019-05-29T17:18:59.868Z,5.90
2019-05-29T17:21:30.741Z,8.97
2019-05-29T17:24:01.572Z,8.57
2019-05-29T17:26:31.101Z,5.93
2019-05-29T17:29:00.638Z,8.13
2019-05-29T17:31:30.532Z,7.30
2019-05-29T17:34:00.313Z,7.53
2019-05-29T17:36:29.843Z,9.17
2019-05-29T17:38:59.344Z,6.40
2019-05-29T17:41:28.940Z,9.30
2019-05-29T17:43:58.719Z,8.33
2019-05-29T17:46:29.489Z,8.47
2019-05-29T17:48:59.516Z,6.53
2019-05-29T17:51:33.969Z,6.97
2019-05-29T17:54:05.561Z,8.03
2019-05-29T17:56:36.900Z,5.40
2019-05-29T17:59:06.555Z,8.73
2019-05-29T18:01:39.917Z,8.20
2019-05-29T18:04:09.503Z,6.53
2019-05-29T18:06:39.738Z,6.03
2019-05-29T18:09:09.451Z,7.00
2019-05-29T18:11:39.569Z,6.67
2019-05-29T18:14:13.231Z,5.03
2019-05-29T18:16:43.938Z,6.43
2019-05-29T18:19:13.939Z,5.77
2019-05-29T18:21:45.029Z,7.13
2019-05-29T18:24:14.564Z,7.20
2019-05-29T18:26:47.249Z,7.90
2019-05-29T18:29:15.274Z,8.40
2019-05-29T18:31:45.434Z,6.87
2019-05-29T18:34:18.774Z,7.43
2019-05-29T18:36:48.260Z,7.50
2019-05-29T18:39:22.100Z,5.67
2019-05-29T18:41:51.837Z,8.10
2019-05-29T18:44:21.202Z,7.10
2019-05-29T18:46:50.682Z,5.27
2019-05-29T18:49:22.173Z,3.77
2019-05-29T18:51:51.823Z,5.10
2019-05-29T18:54:24.278Z,6.23
2019-05-29T18:57:13.783Z,6.87
2019-05-29T18:59:25.464Z,6.77
2019-05-29T19:02:05.503Z,6.13
2019-05-29T19:04:38.873Z,3.90
2019-05-29T19:07:08.508Z,6.73
2019-05-29T19:09:39.816Z,4.90
2019-05-29T19:12:35.687Z,3.90
2019-05-29T19:15:08.925Z,3.80
2019-05-29T19:17:51.015Z,5.00
2019-05-29T19:20:22.542Z,5.17
2019-05-29T19:22:56.032Z,5.30
2019-05-29T19:25:33.604Z,5.37
2019-05-29T19:28:03.632Z,3.87
2019-05-29T19:30:33.354Z,5.67
2019-05-29T19:33:06.757Z,3.97
2019-05-29T19:35:36.417Z,5.40
2019-05-29T19:38:09.103Z,4.83
2019-05-29T19:40:39.020Z,4.93
2019-05-29T19:43:12.419Z,4.13
2019-05-29T19:45:41.931Z,6.50
2019-05-29T19:48:12.626Z,6.33
2019-05-29T19:50:42.283Z,6.27
2019-05-29T19:53:11.858Z,6.73
2019-05-29T19:55:42.779Z,6.20
2019-05-29T19:58:12.429Z,5.87
2019-05-29T20:00:42.095Z,6.37
2019-05-29T20:03:14.388Z,6.70
2019-05-29T20:05:43.978Z,6.00
2019-05-29T20:08:13.702Z,7.57
2019-05-29T20:10:43.314Z,7.00
2019-05-29T20:13:13.259Z,7.77
2019-05-29T20:15:47.276Z,6.40
2019-05-29T20:18:18.375Z,4.23
2019-05-29T20:20:47.934Z,6.27
2019-05-29T20:23:17.493Z,6.57
2019-05-29T20:25:47.071Z,6.03
2019-05-29T20:28:28.728Z,5.73
2019-05-29T20:31:13.522Z,4.83
2019-05-29T20:33:46.789Z,5.50
2019-05-29T20:36:47.007Z,6.93
2019-05-29T20:39:24.913Z,5.30
2019-05-29T20:41:54.463Z,5.90
2019-05-29T20:44:25.980Z,6.20
2019-05-29T20:47:14.811Z,6.40
2019-05-29T20:49:48.069Z,4.60
2019-05-29T20:55:09.009Z,4.93
2019-05-29T20:58:23.180Z,6.27
2019-05-29T21:00:38.482Z,5.77
2019-05-29T21:03:08.650Z,6.43
2019-05-29T21:05:42.863Z,4.83
2019-05-29T21:08:13.032Z,4.73
2019-05-29T21:10:43.606Z,5.40
2019-05-29T21:13:13.549Z,3.97
2019-05-29T21:15:46.270Z,3.63
2019-05-29T21:18:18.193Z,5.60
2019-05-29T21:20:47.860Z,4.10
2019-05-29T21:23:17.504Z,3.57
2019-05-29T21:25:47.178Z,4.17
2019-05-29T21:28:18.028Z,3.73
2019-05-29T21:34:02.595Z,4.17
2019-05-29T21:36:56.508Z,4.47
2019-05-29T21:39:25.965Z,3.77
2019-05-29T21:41:55.470Z,4.73
2019-05-29T21:44:29.217Z,3.90
2019-05-29T21:47:19.486Z,3.87
2019-05-29T21:50:43.693Z,3.30
2019-05-29T21:56:06.055Z,3.57
2019-05-29T21:59:08.661Z,3.33
2019-05-29T22:02:12.561Z,3.30
2019-05-29T22:13:56.863Z,3.00
2019-05-29T22:16:26.769Z,2.50
2019-05-29T22:21:49.521Z,2.63
2019-05-29T22:49:23.589Z,2.67
2019-05-29T22:52:06.666Z,2.30
2019-05-29T22:57:24.621Z,2.23
2019-05-29T23:05:47.272Z,2.77
2019-05-29T23:11:16.626Z,3.10
